Time;durP1;ratioP1;P1;durP2;ratioP2;P2;SDS_P1;SDS_P2;PMS_P1;PMS_P2;Temp;Humidity;BMP_temperature;BMP_pressure;BME280_temperature;BME280_humidity;BME280_pressure;Samples;Min_cycle;Max_cycle;Signal;HPM_P1;HPM_P2
2021/04/25 00:00:02;;;;;;;7.27;3.40;;;;;;;9.60;61.93;96925.94;4907842;29;21050;-72
2021/04/25 00:02:29;;;;;;;10.43;3.93;;;;;;;9.51;61.74;96922.06;4916857;28;20475;-72
2021/04/25 00:04:57;;;;;;;7.47;3.53;;;;;;;9.46;62.22;96920.63;4926092;28;20781;-71
2021/04/25 00:07:23;;;;;;;8.47;4.20;;;;;;;9.44;62.44;96919.88;4933806;29;20973;-72
2021/04/25 00:09:50;;;;;;;17.00;3.77;;;;;;;9.30;62.18;96920.59;4948801;28;20527;-72
2021/04/25 00:12:17;;;;;;;9.43;4.20;;;;;;;9.38;62.42;96912.41;4946290;28;20438;-74
2021/04/25 00:14:44;;;;;;;7.27;3.60;;;;;;;9.33;62.68;96917.84;4942505;28;21043;-70
2021/04/25 00:17:11;;;;;;;6.50;3.23;;;;;;;9.27;62.73;96917.31;4946361;28;20456;-73
2021/04/25 00:19:39;;;;;;;7.77;3.03;;;;;;;9.21;63.02;96913.28;4937823;28;20802;-73
2021/04/25 00:22:06;;;;;;;15.80;3.60;;;;;;;9.21;63.15;96913.28;4921668;28;20516;-72
2021/04/25 00:24:33;;;;;;;10.43;3.13;;;;;;;9.16;62.99;96915.25;4940706;28;20988;-70
2021/04/25 00:27:00;;;;;;;8.60;3.30;;;;;;;9.03;63.37;96903.84;4951480;28;20444;-72
2021/04/25 00:29:27;;;;;;;13.23;3.77;;;;;;;8.93;63.87;96906.97;4948925;28;20870;-72
2021/04/25 00:31:54;;;;;;;8.77;3.40;;;;;;;8.77;64.55;96904.31;4936662;28;20516;-72
2021/04/25 00:34:20;;;;;;;9.47;3.50;;;;;;;8.78;65.18;96907.75;4945558;28;20493;-72
2021/04/25 00:36:48;;;;;;;10.60;3.93;;;;;;;8.87;64.51;96895.13;4947489;28;20453;-71
2021/04/25 00:39:15;;;;;;;9.63;4.53;;;;;;;8.96;64.39;96902.47;4950985;28;20854;-72
2021/04/25 00:41:42;;;;;;;6.77;3.47;;;;;;;9.00;64.45;96900.56;4940455;28;20432;-70
2021/04/25 00:44:10;;;;;;;10.60;3.27;;;;;;;9.00;64.50;96898.78;4946536;28;20471;-70
2021/04/25 00:46:37;;;;;;;10.80;3.67;;;;;;;9.05;64.67;96902.00;4943728;28;20431;-71
2021/04/25 00:49:05;;;;;;;8.73;3.20;;;;;;;9.05;64.87;96896.81;4943572;28;20462;-70
2021/04/25 00:51:33;;;;;;;8.00;3.77;;;;;;;8.96;64.72;96894.69;4942831;28;20446;-71
2021/04/25 00:54:02;;;;;;;7.10;4.20;;;;;;;8.84;64.51;96889.25;4937028;28;20454;-72
2021/04/25 00:56:31;;;;;;;12.10;3.80;;;;;;;8.78;64.90;96894.78;4946231;28;20832;-74
2021/04/25 00:59:01;;;;;;;7.83;3.43;;;;;;;8.88;65.21;96893.38;4939723;28;20455;-71
2021/04/25 01:01:28;;;;;;;5.70;3.50;;;;;;;8.84;64.90;96897.88;4940947;28;20543;-71
2021/04/25 01:03:55;;;;;;;6.53;3.00;;;;;;;8.89;65.09;96900.25;4935264;28;20501;-71
2021/04/25 01:06:22;;;;;;;6.37;3.63;;;;;;;8.84;65.00;96897.88;4945411;28;20934;-70
2021/04/25 01:08:49;;;;;;;15.80;4.03;;;;;;;8.82;65.14;96898.88;4944813;28;20937;-71
2021/04/25 01:11:18;;;;;;;11.47;3.80;;;;;;;8.78;65.05;96893.00;4939743;28;20898;-70
2021/04/25 01:13:50;;;;;;;9.67;4.17;;;;;;;8.74;65.09;96894.09;4941738;28;20929;-69
2021/04/25 01:16:17;;;;;;;7.43;3.60;;;;;;;8.77;65.17;96886.13;4937238;28;20517;-71
2021/04/25 01:18:44;;;;;;;9.93;4.20;;;;;;;8.74;65.33;96893.22;4942108;28;20780;-72
2021/04/25 01:21:13;;;;;;;7.53;3.40;;;;;;;8.75;65.51;96902.69;4943310;28;20921;-72
2021/04/25 01:23:40;;;;;;;7.23;3.47;;;;;;;8.72;65.37;96898.50;4944683;28;20461;-71
2021/04/25 01:26:07;;;;;;;9.23;3.10;;;;;;;8.74;65.23;96901.03;4944051;28;20446;-71
2021/04/25 01:28:34;;;;;;;11.73;4.30;;;;;;;8.73;64.93;96907.97;4936547;28;20446;-72
2021/04/25 01:31:02;;;;;;;7.07;3.70;;;;;;;8.73;65.06;96910.56;4923001;28;20453;-72
2021/04/25 01:33:29;;;;;;;8.73;3.92;;;;;;;8.64;65.57;96911.00;4946733;28;20484;-71
2021/04/25 01:35:56;;;;;;;9.90;4.20;;;;;;;8.57;65.39;96922.59;4934632;28;20212;-72
2021/04/25 01:38:24;;;;;;;9.07;4.13;;;;;;;8.53;65.88;96923.69;4940817;28;20485;-72
2021/04/25 01:40:51;;;;;;;10.33;4.13;;;;;;;8.48;65.72;96927.41;4942125;28;20520;-71
2021/04/25 01:43:18;;;;;;;10.80;4.57;;;;;;;8.41;65.94;96929.44;4942632;28;21201;-72
2021/04/25 01:45:45;;;;;;;7.13;3.70;;;;;;;8.42;65.95;96915.56;4943093;28;21317;-70
2021/04/25 01:48:12;;;;;;;11.18;3.25;;;;;;;8.31;65.87;96908.41;4936302;28;20458;-71
2021/04/25 01:50:40;;;;;;;10.27;3.35;;;;;;;8.37;65.82;96926.25;4945198;28;20511;-72
2021/04/25 01:53:10;;;;;;;8.35;3.83;;;;;;;8.23;66.68;96919.13;4947540;28;20735;-71
2021/04/25 01:55:42;;;;;;;7.00;3.47;;;;;;;8.28;66.67;96923.16;4945516;28;20234;-72
2021/04/25 01:58:10;;;;;;;8.07;3.67;;;;;;;8.24;66.28;96920.78;4936562;28;20211;-70
2021/04/25 02:00:39;;;;;;;9.35;4.43;;;;;;;8.18;66.76;96909.84;4937431;28;20526;-73
2021/04/25 02:03:08;;;;;;;8.98;4.40;;;;;;;8.17;66.33;96908.19;4934461;28;20241;-72
2021/04/25 02:05:36;;;;;;;8.23;4.35;;;;;;;8.11;66.48;96916.25;4907507;29;20442;-73
2021/04/25 02:08:04;;;;;;;7.32;4.57;;;;;;;8.10;67.07;96911.97;4903060;29;20248;-73
2021/04/25 02:10:31;;;;;;;9.23;3.37;;;;;;;8.06;67.27;96915.59;4898720;29;20229;-73
2021/04/25 02:12:59;;;;;;;11.70;4.10;;;;;;;8.06;67.52;96910.41;4898498;29;20912;-73
2021/04/25 02:15:27;;;;;;;10.90;4.40;;;;;;;8.02;67.40;96914.09;4903907;29;20456;-72
2021/04/25 02:17:54;;;;;;;9.27;3.80;;;;;;;8.03;67.14;96910.59;4910585;29;20523;-73
2021/04/25 02:20:23;;;;;;;7.15;3.15;;;;;;;7.99;66.98;96909.88;4891776;29;21058;-73
2021/04/25 02:22:51;;;;;;;9.73;4.23;;;;;;;7.87;67.13;96904.44;4904809;29;20272;-72
2021/04/25 02:25:20;;;;;;;12.75;3.80;;;;;;;7.85;67.41;96904.50;4907534;29;20987;-74
2021/04/25 02:27:47;;;;;;;7.22;3.55;;;;;;;7.79;67.26;96897.00;4913836;29;20185;-74
2021/04/25 02:30:17;;;;;;;7.93;3.50;;;;;;;7.76;67.83;96894.56;4913689;29;20283;-72
2021/04/25 02:32:44;;;;;;;10.48;3.85;;;;;;;7.68;67.92;96894.09;4906959;29;20617;-74
2021/04/25 02:35:12;;;;;;;11.00;4.15;;;;;;;7.72;67.92;96889.59;4909966;29;20292;-73
2021/04/25 02:37:43;;;;;;;9.45;4.00;;;;;;;7.62;68.21;96891.75;4911668;29;20189;-73
2021/04/25 02:40:11;;;;;;;8.30;4.20;;;;;;;7.58;68.25;96892.81;4911449;29;20616;-73
2021/04/25 02:42:39;;;;;;;11.30;4.18;;;;;;;7.45;68.67;96867.53;4906092;29;20436;-72
2021/04/25 02:45:07;;;;;;;9.68;3.60;;;;;;;7.53;68.61;96886.16;4906015;29;20538;-73
2021/04/25 02:47:35;;;;;;;9.30;3.60;;;;;;;7.47;69.08;96881.25;4905325;29;20200;-70
2021/04/25 02:50:02;;;;;;;7.10;3.35;;;;;;;7.38;69.45;96884.25;4904104;29;20228;-71
2021/04/25 02:52:29;;;;;;;8.05;3.90;;;;;;;7.43;69.64;96887.50;4902142;29;20200;-71
2021/04/25 02:54:56;;;;;;;8.88;3.70;;;;;;;7.34;69.45;96869.75;4903548;29;20219;-71
2021/04/25 02:57:23;;;;;;;5.88;3.88;;;;;;;7.47;69.20;96887.28;4909138;29;20427;-71
2021/04/25 02:59:50;;;;;;;8.68;3.80;;;;;;;7.45;69.05;96885.66;4909376;29;20236;-70
2021/04/25 03:02:16;;;;;;;9.95;4.35;;;;;;;7.49;69.65;96887.19;4917151;29;20738;-71
2021/04/25 03:04:44;;;;;;;13.18;3.95;;;;;;;7.48;69.47;96886.38;4941958;28;20222;-70
2021/04/25 03:07:11;;;;;;;6.93;3.95;;;;;;;7.08;69.49;96880.44;4942824;28;20571;-73
2021/04/25 03:09:38;;;;;;;9.90;4.00;;;;;;;6.89;69.21;96880.41;4945926;28;20233;-73
2021/04/25 03:12:06;;;;;;;9.32;4.38;;;;;;;6.69;70.36;96882.16;4945988;28;20230;-72
2021/04/25 03:14:33;;;;;;;5.25;3.13;;;;;;;6.81;70.49;96886.81;4937416;28;20634;-74
2021/04/25 03:17:00;;;;;;;12.68;4.70;;;;;;;6.91;70.26;96882.94;4938873;28;20698;-73
2021/04/25 03:19:28;;;;;;;8.35;3.55;;;;;;;6.97;70.39;96877.47;4943577;28;20223;-73
2021/04/25 03:21:55;;;;;;;7.78;3.35;;;;;;;6.91;70.49;96882.94;4939595;28;20258;-73
2021/04/25 03:24:23;;;;;;;12.45;3.95;;;;;;;6.86;71.08;96874.53;4940843;28;20281;-73
2021/04/25 03:26:50;;;;;;;9.75;4.00;;;;;;;6.85;71.22;96884.00;4945665;28;20760;-71
2021/04/25 03:29:17;;;;;;;11.50;3.72;;;;;;;6.87;70.87;96881.38;4944110;28;20229;-71
2021/04/25 03:31:44;;;;;;;13.25;4.45;;;;;;;6.91;70.98;96878.59;4939370;28;20587;-73
2021/04/25 03:34:11;;;;;;;12.63;3.90;;;;;;;6.92;71.48;96880.25;4947087;28;20238;-72
2021/04/25 03:36:37;;;;;;;8.57;4.18;;;;;;;6.80;71.61;96885.97;4941937;28;20751;-74
2021/04/25 03:39:06;;;;;;;12.27;4.45;;;;;;;6.82;71.93;96884.16;4937949;28;20214;-72
2021/04/25 03:41:34;;;;;;;9.35;3.85;;;;;;;6.69;71.93;96888.16;4946534;28;20258;-74
2021/04/25 03:44:01;;;;;;;17.15;4.70;;;;;;;6.70;71.73;96881.25;4941899;28;20665;-72
2021/04/25 03:46:28;;;;;;;8.20;3.63;;;;;;;6.77;72.05;96890.44;4943662;28;20195;-73
2021/04/25 03:48:56;;;;;;;12.93;4.95;;;;;;;6.74;71.62;96893.13;4939905;28;20600;-75
2021/04/25 03:51:23;;;;;;;7.97;4.15;;;;;;;6.77;71.89;96896.44;4949159;28;20824;-73
2021/04/25 03:53:50;;;;;;;8.43;4.07;;;;;;;6.79;71.56;96899.78;4929232;28;20277;-72
2021/04/25 03:56:18;;;;;;;8.40;4.35;;;;;;;6.52;71.98;96900.09;4948467;28;20518;-74
2021/04/25 03:58:45;;;;;;;12.57;3.85;;;;;;;6.40;72.90;96891.13;4944534;28;20244;-73
2021/04/25 04:01:12;;;;;;;7.13;4.18;;;;;;;6.40;72.92;96890.28;4948047;28;20739;-72
2021/04/25 04:03:39;;;;;;;8.23;3.67;;;;;;;6.50;72.51;96899.34;4948481;28;20273;-73
2021/04/25 04:06:06;;;;;;;9.88;2.88;;;;;;;6.52;72.39;96905.28;4944908;28;20202;-73
2021/04/25 04:08:33;;;;;;;6.63;4.13;;;;;;;6.57;72.26;96904.19;4947802;28;20309;-71
2021/04/25 04:11:00;;;;;;;10.05;4.47;;;;;;;6.55;72.56;96895.66;4926988;28;20196;-73
2021/04/25 04:13:28;;;;;;;9.73;4.40;;;;;;;6.41;72.09;96894.56;4939259;28;20661;-72
2021/04/25 04:15:55;;;;;;;6.95;3.80;;;;;;;6.34;72.49;96899.13;4946822;28;20222;-72
2021/04/25 04:18:22;;;;;;;10.00;4.95;;;;;;;6.41;72.65;96895.38;4939972;28;20189;-72
2021/04/25 04:20:49;;;;;;;13.30;4.28;;;;;;;6.38;72.64;96899.84;4948870;28;20702;-72
2021/04/25 04:23:17;;;;;;;7.90;3.90;;;;;;;6.43;73.18;96900.50;4949452;28;20264;-73
2021/04/25 04:25:44;;;;;;;9.70;4.40;;;;;;;6.34;73.27;96901.69;4945659;28;20195;-73
2021/04/25 04:28:11;;;;;;;11.25;4.55;;;;;;;6.34;73.04;96906.03;4945931;28;20685;-71
2021/04/25 04:30:39;;;;;;;11.75;4.82;;;;;;;6.32;72.67;96907.81;4941928;28;20580;-72
2021/04/25 04:33:06;;;;;;;10.65;3.75;;;;;;;6.37;72.91;96911.06;4943883;28;20191;-73
2021/04/25 04:35:34;;;;;;;9.93;3.45;;;;;;;6.27;72.98;96909.78;4924339;28;20223;-73
2021/04/25 04:38:01;;;;;;;6.72;3.67;;;;;;;6.21;73.53;96916.03;4943554;28;20479;-74
2021/04/25 04:40:28;;;;;;;6.82;3.75;;;;;;;6.15;73.87;96915.44;4948641;28;20725;-71
2021/04/25 04:42:55;;;;;;;6.57;3.42;;;;;;;6.33;73.38;96919.88;4940833;28;20273;-71
2021/04/25 04:45:25;;;;;;;8.00;3.65;;;;;;;6.37;73.63;96932.63;4938414;28;20765;-72
2021/04/25 04:47:53;;;;;;;11.90;5.32;;;;;;;6.21;71.89;96935.84;4946407;28;20206;-71
2021/04/25 04:50:20;;;;;;;14.32;6.30;;;;;;;6.08;71.39;96919.16;4947669;28;20690;-71
2021/04/25 04:52:48;;;;;;;16.98;6.88;;;;;;;5.90;71.41;96909.56;4947377;28;20258;-71
2021/04/25 04:55:16;;;;;;;11.07;5.75;;;;;;;5.89;72.36;96929.34;4939056;28;20863;-74
2021/04/25 04:57:44;;;;;;;10.38;5.70;;;;;;;6.05;72.91;96935.59;4935941;28;20510;-74
2021/04/25 05:00:12;;;;;;;12.57;5.53;;;;;;;6.11;73.17;96926.81;4923240;28;20227;-71
2021/04/25 05:02:40;;;;;;;10.88;4.63;;;;;;;6.16;73.72;96927.44;4937984;28;20631;-71
2021/04/25 05:05:08;;;;;;;8.43;4.93;;;;;;;6.32;73.64;96923.34;4938065;28;20219;-73
2021/04/25 05:07:35;;;;;;;16.52;6.55;;;;;;;6.33;73.23;96925.03;4938346;28;20667;-73
2021/04/25 05:10:06;;;;;;;13.85;6.18;;;;;;;6.21;73.08;96930.69;4940539;28;20538;-73
2021/04/25 05:12:33;;;;;;;10.88;5.75;;;;;;;6.24;73.77;96927.97;4926857;28;20203;-73
2021/04/25 05:15:00;;;;;;;12.93;5.22;;;;;;;6.48;73.57;96933.00;4936731;28;20748;-74
2021/04/25 05:17:27;;;;;;;8.35;4.32;;;;;;;6.69;73.32;96939.06;4937746;28;20910;-73
2021/04/25 05:19:54;;;;;;;14.95;4.80;;;;;;;6.83;73.19;96939.31;4941724;28;20763;-74
2021/04/25 05:22:22;;;;;;;12.27;4.72;;;;;;;6.64;72.24;96941.00;4937808;28;20611;-71
2021/04/25 05:24:49;;;;;;;11.00;5.05;;;;;;;6.68;71.92;96942.53;4943712;28;20215;-74
2021/04/25 05:27:17;;;;;;;12.50;6.80;;;;;;;6.74;71.99;96942.28;4931671;28;20191;-71
2021/04/25 05:29:45;;;;;;;12.80;5.00;;;;;;;6.74;71.88;96943.13;4944238;28;20215;-69
2021/04/25 05:32:12;;;;;;;15.27;5.60;;;;;;;6.90;72.20;96953.66;4945885;28;20195;-70
2021/04/25 05:34:39;;;;;;;7.60;4.82;;;;;;;6.97;71.98;96953.34;4942344;28;20326;-70
2021/04/25 05:37:06;;;;;;;11.07;5.13;;;;;;;7.10;71.82;96956.25;4943282;28;20191;-70
2021/04/25 05:39:33;;;;;;;9.27;4.30;;;;;;;7.29;71.19;96964.94;4941610;28;20659;-72
2021/04/25 05:42:00;;;;;;;8.63;4.00;;;;;;;7.29;71.46;96941.63;4939226;28;20655;-72
2021/04/25 05:44:28;;;;;;;10.93;4.15;;;;;;;7.58;71.05;96954.13;4943407;28;20223;-72
2021/04/25 05:46:55;;;;;;;18.02;5.07;;;;;;;7.78;71.34;96956.66;4937727;28;20206;-73
2021/04/25 05:49:23;;;;;;;10.63;4.72;;;;;;;8.00;70.95;96952.16;4934128;28;20223;-71
2021/04/25 05:51:50;;;;;;;11.63;4.53;;;;;;;8.11;69.67;96955.13;4942894;28;20202;-70
2021/04/25 05:54:17;;;;;;;6.30;3.80;;;;;;;8.16;69.25;96951.41;4918917;28;20589;-71
2021/04/25 05:56:45;;;;;;;17.45;4.70;;;;;;;8.18;69.58;96952.16;4946884;28;20198;-72
2021/04/25 05:59:12;;;;;;;10.88;5.10;;;;;;;8.44;69.91;96959.59;4937657;28;20226;-72
2021/04/25 06:01:39;;;;;;;11.73;5.78;;;;;;;8.55;70.32;96958.16;4945833;28;20241;-71
2021/04/25 06:04:12;;;;;;;13.52;5.22;;;;;;;8.82;69.59;96964.63;4942329;28;20230;-74
2021/04/25 06:06:39;;;;;;;23.20;5.20;;;;;;;8.91;69.02;96958.97;4941860;28;20207;-72
2021/04/25 06:09:09;;;;;;;17.92;4.95;;;;;;;8.90;69.46;96965.06;4943205;28;20698;-70
2021/04/25 06:11:36;;;;;;;10.33;4.97;;;;;;;9.12;69.31;96965.69;4942060;28;20199;-72
2021/04/25 06:14:04;;;;;;;12.43;6.33;;;;;;;9.42;69.03;96966.72;4940293;28;20989;-71
2021/04/25 06:16:32;;;;;;;11.27;6.00;;;;;;;9.56;67.92;96964.25;4936824;28;20447;-72
2021/04/25 06:18:59;;;;;;;15.47;6.13;;;;;;;9.71;67.11;96971.25;4944445;28;20973;-73
2021/04/25 06:21:26;;;;;;;15.20;6.60;;;;;;;9.91;66.19;96972.78;4937346;28;20763;-72
2021/04/25 06:23:53;;;;;;;13.70;6.47;;;;;;;9.97;65.32;96968.13;4944558;28;20469;-71
2021/04/25 06:26:21;;;;;;;17.93;6.47;;;;;;;10.25;65.81;96970.91;4944263;28;20704;-70
2021/04/25 06:28:48;;;;;;;11.57;6.20;;;;;;;10.43;65.25;96974.25;4944082;28;20785;-72
2021/04/25 06:31:16;;;;;;;12.57;6.10;;;;;;;10.60;65.67;96971.59;4941308;28;20765;-71
2021/04/25 06:33:44;;;;;;;16.87;6.10;;;;;;;10.68;64.84;96962.41;4940483;28;20969;-72
2021/04/25 06:36:12;;;;;;;10.33;6.20;;;;;;;10.99;63.73;96977.13;4941199;28;20536;-72
2021/04/25 06:38:41;;;;;;;27.43;6.50;;;;;;;11.04;63.11;96975.94;4943147;28;20953;-70
2021/04/25 06:41:08;;;;;;;16.10;6.40;;;;;;;11.09;63.27;96986.06;4941663;28;20439;-72
2021/04/25 06:43:36;;;;;;;14.90;6.83;;;;;;;11.20;63.64;96979.31;4933200;28;20478;-72
2021/04/25 06:46:03;;;;;;;14.93;7.27;;;;;;;11.29;62.05;96984.00;4941824;28;20518;-70
2021/04/25 06:48:31;;;;;;;13.40;6.83;;;;;;;11.30;62.95;96988.28;4945024;28;20467;-72
2021/04/25 06:51:03;;;;;;;14.33;6.53;;;;;;;11.64;62.36;96982.78;4942890;28;20510;-70
2021/04/25 06:53:30;;;;;;;15.73;6.70;;;;;;;11.87;61.85;96979.63;4939826;28;20933;-70
2021/04/25 06:55:57;;;;;;;15.10;6.87;;;;;;;11.94;61.50;96975.69;4938908;28;20434;-72
2021/04/25 06:58:24;;;;;;;16.33;6.50;;;;;;;12.03;60.46;96979.53;4941606;28;20754;-71
2021/04/25 07:00:51;;;;;;;16.00;6.00;;;;;;;12.20;60.24;96976.69;4944181;28;20537;-70
2021/04/25 07:03:18;;;;;;;16.73;6.93;;;;;;;12.40;59.61;96969.31;4941376;28;20474;-72
2021/04/25 07:05:46;;;;;;;15.77;7.37;;;;;;;12.31;59.76;96976.88;4937156;28;20449;-72
2021/04/25 07:08:13;;;;;;;20.70;6.40;;;;;;;12.65;60.42;96979.88;4938903;28;20456;-70
2021/04/25 07:10:40;;;;;;;20.73;8.57;;;;;;;13.01;58.98;96983.59;4943773;28;20939;-70
2021/04/25 07:13:07;;;;;;;18.67;7.30;;;;;;;13.44;57.90;96981.59;4950896;28;20434;-72
2021/04/25 07:15:34;;;;;;;19.30;10.27;;;;;;;13.89;57.35;96978.47;4946958;28;21020;-70
2021/04/25 07:18:02;;;;;;;41.00;19.70;;;;;;;14.18;55.91;96985.19;4943434;28;20658;-71
2021/04/25 07:20:29;;;;;;;14.40;7.93;;;;;;;14.22;55.18;96978.78;4944361;28;20786;-72
2021/04/25 07:22:57;;;;;;;19.40;7.03;;;;;;;14.48;55.03;96988.25;4945337;28;20458;-72
2021/04/25 07:25:24;;;;;;;16.77;8.30;;;;;;;15.07;54.86;96983.00;4948861;28;20859;-70
2021/04/25 07:27:51;;;;;;;14.27;7.20;;;;;;;15.51;53.27;96982.34;4942032;28;20493;-70
2021/04/25 07:30:18;;;;;;;20.73;7.43;;;;;;;15.62;53.08;96970.06;4943321;28;20878;-71
2021/04/25 07:32:45;;;;;;;16.03;7.30;;;;;;;15.52;53.23;96973.50;4944243;28;20785;-71
2021/04/25 07:35:13;;;;;;;16.83;8.43;;;;;;;15.89;52.03;96972.38;4944323;28;20973;-70
2021/04/25 07:37:44;;;;;;;12.90;7.20;;;;;;;16.13;51.77;96966.06;4948429;28;20435;-71
2021/04/25 07:40:17;;;;;;;30.47;7.53;;;;;;;16.18;51.44;96963.94;4943044;28;20518;-74
2021/04/25 07:42:45;;;;;;;17.60;7.33;;;;;;;16.06;51.01;96978.00;4942579;28;20440;-72
2021/04/25 07:45:13;;;;;;;22.37;8.70;;;;;;;16.24;51.15;96975.75;4940876;28;20462;-70
2021/04/25 07:47:44;;;;;;;15.53;7.07;;;;;;;16.19;50.99;96976.09;4949515;28;20451;-71
2021/04/25 07:50:13;;;;;;;53.47;26.97;;;;;;;16.26;51.05;96971.22;4948041;28;21148;-70
2021/04/25 07:52:41;;;;;;;46.97;27.83;;;;;;;15.92;51.41;96956.41;4925528;28;20759;-70
2021/04/25 07:55:10;;;;;;;15.67;8.00;;;;;;;15.51;52.49;96971.84;4943669;28;20476;-71
2021/04/25 07:57:37;;;;;;;17.17;9.30;;;;;;;15.48;53.26;96966.84;4922502;28;20494;-71
2021/04/25 08:00:07;;;;;;;20.77;8.00;;;;;;;15.44;53.36;96970.63;4938712;28;20490;-70
2021/04/25 08:02:34;;;;;;;14.87;7.90;;;;;;;15.43;53.13;96964.56;4947383;28;20526;-70
2021/04/25 08:05:01;;;;;;;19.00;7.97;;;;;;;15.45;53.89;96967.03;4944020;28;20459;-73
2021/04/25 08:07:28;;;;;;;18.93;9.20;;;;;;;15.73;52.82;96961.38;4939639;28;20438;-72
2021/04/25 08:09:55;;;;;;;16.13;7.97;;;;;;;15.86;52.68;96962.97;4941608;28;20458;-73
2021/04/25 08:12:22;;;;;;;18.70;8.37;;;;;;;15.96;51.96;96957.81;4942198;28;20459;-73
2021/04/25 08:14:49;;;;;;;18.30;8.40;;;;;;;15.80;52.53;96959.97;4946974;28;20809;-73
2021/04/25 08:17:16;;;;;;;17.23;9.20;;;;;;;15.82;52.99;96961.53;4942435;28;20443;-72
2021/04/25 08:19:43;;;;;;;22.63;8.63;;;;;;;16.17;52.96;96958.78;4937797;28;21197;-73
2021/04/25 08:22:10;;;;;;;19.30;9.20;;;;;;;16.17;52.07;96964.88;4938476;28;20794;-73
2021/04/25 08:24:37;;;;;;;16.57;8.63;;;;;;;16.44;51.60;96965.38;4947503;28;20547;-72
2021/04/25 08:27:05;;;;;;;23.20;9.20;;;;;;;16.35;52.01;96973.13;4915311;28;20483;-72
2021/04/25 08:29:32;;;;;;;17.37;8.90;;;;;;;16.47;51.47;96959.03;4938430;28;20780;-73
2021/04/25 08:32:01;;;;;;;22.43;8.10;;;;;;;16.71;51.19;96962.34;4943742;28;20820;-72
2021/04/25 08:34:28;;;;;;;16.97;8.93;;;;;;;16.74;51.27;96968.19;4937656;28;20469;-73
2021/04/25 08:36:55;;;;;;;21.60;9.47;;;;;;;16.66;51.29;96975.88;4943879;28;20446;-74
2021/04/25 08:39:22;;;;;;;19.93;9.17;;;;;;;16.64;50.14;96976.94;4942584;28;20475;-73
2021/04/25 08:41:49;;;;;;;16.00;9.83;;;;;;;16.71;50.93;96975.50;4943923;28;20898;-73
2021/04/25 08:44:20;;;;;;;16.03;8.50;;;;;;;16.87;51.82;96968.03;4947060;28;20484;-72
2021/04/25 08:46:48;;;;;;;43.67;24.30;;;;;;;17.21;49.64;96967.78;4946361;28;20928;-75
2021/04/25 08:49:20;;;;;;;21.03;8.30;;;;;;;17.22;50.90;96971.28;4948410;28;21028;-74
2021/04/25 08:51:48;;;;;;;18.40;8.53;;;;;;;17.40;50.20;96977.66;4938627;28;21130;-73
2021/04/25 08:54:15;;;;;;;15.90;9.87;;;;;;;17.58;49.67;96973.53;4943153;28;20859;-74
2021/04/25 08:56:44;;;;;;;18.83;9.70;;;;;;;17.62;48.78;96973.13;4945628;28;21046;-75
2021/04/25 08:59:13;;;;;;;17.17;9.30;;;;;;;17.82;49.45;96969.63;4937582;28;20466;-73
2021/04/25 09:01:44;;;;;;;23.23;9.10;;;;;;;17.92;48.72;96974.00;4937809;28;20477;-74
2021/04/25 09:04:11;;;;;;;17.30;8.30;;;;;;;17.96;48.19;96971.94;4937456;28;20502;-75
2021/04/25 09:06:57;;;;;;;15.90;8.50;;;;;;;18.08;49.00;96969.09;4947702;28;20497;-74
2021/04/25 09:09:42;;;;;;;20.37;9.23;;;;;;;17.91;46.69;96964.44;4943634;28;20462;-74
2021/04/25 09:12:10;;;;;;;18.47;8.03;;;;;;;16.71;48.93;96957.09;4938129;28;20446;-73
2021/04/25 09:14:39;;;;;;;17.10;8.13;;;;;;;17.25;50.20;96965.75;4942512;28;20553;-74
2021/04/25 09:17:08;;;;;;;15.33;9.20;;;;;;;17.70;49.64;96968.88;4940663;28;20743;-73
2021/04/25 09:19:50;;;;;;;20.90;9.60;;;;;;;17.85;47.43;96972.03;4937321;28;20481;-73
2021/04/25 09:22:19;;;;;;;20.40;8.43;;;;;;;18.07;48.60;96969.22;4937060;28;20933;-74
2021/04/25 09:24:46;;;;;;;16.47;7.13;;;;;;;18.21;46.25;96960.97;4945993;28;20513;-73
2021/04/25 09:27:24;;;;;;;17.00;8.80;;;;;;;17.71;47.00;96962.63;4943182;28;20919;-73
2021/04/25 09:29:54;;;;;;;18.57;9.27;;;;;;;16.82;47.15;96965.78;4940849;28;21047;-74
2021/04/25 09:32:23;;;;;;;18.70;7.73;;;;;;;16.25;48.55;96938.84;4937281;28;20435;-74
2021/04/25 09:34:51;;;;;;;11.33;7.07;;;;;;;17.13;48.70;96961.47;4936004;28;20469;-74
2021/04/25 09:37:20;;;;;;;16.17;7.90;;;;;;;17.41;46.65;96958.28;4937188;28;20458;-74
2021/04/25 09:40:02;;;;;;;19.57;7.77;;;;;;;18.00;46.58;96958.38;4947093;28;20822;-73
2021/04/25 09:42:31;;;;;;;148.57;63.57;;;;;;;18.39;46.98;96962.88;4941893;28;20451;-74
2021/04/25 09:44:58;;;;;;;110.63;43.27;;;;;;;18.61;44.80;96965.31;4938826;28;20856;-74
2021/04/25 09:47:33;;;;;;;42.97;18.20;;;;;;;18.93;44.72;96960.66;4942056;28;20450;-75
2021/04/25 09:50:01;;;;;;;184.53;78.87;;;;;;;19.13;45.52;96956.22;4939131;28;20462;-74
2021/04/25 09:52:39;;;;;;;123.47;53.93;;;;;;;19.46;43.79;96959.31;4946269;28;20751;-73
2021/04/25 09:55:23;;;;;;;16.17;8.60;;;;;;;19.42;42.57;96952.66;4941963;28;20482;-73
2021/04/25 09:57:52;;;;;;;11.10;5.77;;;;;;;19.82;42.89;96948.00;4944254;28;20525;-74
2021/04/25 10:00:20;;;;;;;18.50;6.77;;;;;;;19.96;42.87;96942.25;4936356;28;20497;-76
2021/04/25 10:02:59;;;;;;;13.83;6.90;;;;;;;19.67;43.95;96936.19;4948047;28;21132;-75
2021/04/25 10:05:28;;;;;;;16.17;7.13;;;;;;;19.83;43.03;96941.72;4947447;28;20964;-75
2021/04/25 10:07:56;;;;;;;12.57;6.97;;;;;;;20.20;42.78;96942.63;4948736;28;20796;-74
2021/04/25 10:10:23;;;;;;;12.07;7.50;;;;;;;20.38;41.96;96943.53;4939959;28;20462;-75
2021/04/25 10:12:50;;;;;;;15.60;6.90;;;;;;;20.05;40.72;96930.03;4947190;28;20836;-74
2021/04/25 10:15:18;;;;;;;11.20;6.20;;;;;;;20.16;42.97;96938.59;4943922;28;20934;-74
2021/04/25 10:17:46;;;;;;;51.60;28.63;;;;;;;20.07;42.82;96934.19;4946538;28;20441;-74
2021/04/25 10:20:16;;;;;;;28.30;15.10;;;;;;;20.45;41.70;96939.31;4948092;28;20484;-74
2021/04/25 10:22:44;;;;;;;11.93;5.83;;;;;;;20.71;40.04;96937.63;4925369;28;21158;-74
2021/04/25 10:25:15;;;;;;;10.50;5.93;;;;;;;20.62;40.37;96938.53;4948663;28;20521;-73
2021/04/25 10:27:52;;;;;;;13.60;6.20;;;;;;;20.82;39.65;96932.13;4945405;28;20441;-74
2021/04/25 10:30:20;;;;;;;11.73;6.50;;;;;;;20.85;40.09;96936.31;4946514;28;20458;-73
2021/04/25 10:32:54;;;;;;;16.33;6.40;;;;;;;20.87;39.85;96932.56;4938775;28;20439;-74
2021/04/25 10:35:23;;;;;;;20.43;6.17;;;;;;;21.04;38.76;96930.88;4941092;28;20988;-75
2021/04/25 10:37:50;;;;;;;10.30;6.13;;;;;;;21.26;38.96;96931.28;4945243;28;20829;-74
2021/04/25 10:40:44;;;;;;;11.27;5.70;;;;;;;21.21;39.61;96930.09;4924292;28;20483;-75
2021/04/25 10:43:13;;;;;;;14.87;5.53;;;;;;;20.71;38.80;96913.81;4935715;28;20536;-75
2021/04/25 10:45:57;;;;;;;15.63;6.10;;;;;;;20.75;40.15;96936.34;4952017;28;20830;-75
2021/04/25 10:48:27;;;;;;;43.53;22.43;;;;;;;21.11;39.02;96918.72;4953281;28;20981;-74
2021/04/25 10:51:14;;;;;;;10.83;4.73;;;;;;;21.33;38.29;96927.03;4946956;28;20461;-74
2021/04/25 10:53:43;;;;;;;8.70;4.40;;;;;;;21.63;38.46;96929.28;4946013;28;20790;-74
2021/04/25 10:56:25;;;;;;;8.00;5.27;;;;;;;21.22;38.41;96940.50;4943982;28;20822;-75
2021/04/25 10:59:26;;;;;;;12.37;5.80;;;;;;;21.61;36.88;96927.75;4945227;28;21070;-74
2021/04/25 11:01:59;;;;;;;10.40;5.13;;;;;;;21.90;37.47;96920.38;4946335;28;20945;-76
2021/04/25 11:05:04;;;;;;;9.13;4.40;;;;;;;21.87;36.42;96918.84;4950617;28;20489;-76
2021/04/25 11:07:48;;;;;;;10.50;4.90;;;;;;;22.30;34.77;96915.31;4941085;28;20445;-74
2021/04/25 11:10:22;;;;;;;16.80;5.43;;;;;;;22.24;35.64;96898.19;4949771;28;20533;-76
2021/04/25 11:12:50;;;;;;;10.73;4.93;;;;;;;22.75;35.62;96924.63;4950808;28;20489;-75
2021/04/25 11:15:55;;;;;;;10.83;6.23;;;;;;;21.82;35.17;96917.69;4944177;28;20469;-75
2021/04/25 11:18:49;;;;;;;9.80;4.60;;;;;;;21.61;36.81;96912.69;4939865;28;20797;-75
2021/04/25 11:21:54;;;;;;;7.50;4.40;;;;;;;22.50;36.29;96909.63;4945192;28;20795;-75
2021/04/25 11:24:35;;;;;;;10.67;4.93;;;;;;;22.75;35.36;96914.84;4942988;28;21286;-75
2021/04/25 11:27:04;;;;;;;10.17;4.60;;;;;;;22.81;35.26;96910.69;4938033;28;20906;-75
2021/04/25 11:30:06;;;;;;;14.23;4.83;;;;;;;22.94;34.18;96908.41;4940867;28;20804;-75
2021/04/25 11:32:39;;;;;;;7.50;4.10;;;;;;;23.17;34.37;96909.47;4939650;28;20453;-74
2021/04/25 11:35:21;;;;;;;7.60;4.10;;;;;;;23.44;33.30;96906.50;4946329;28;20451;-75
2021/04/25 11:37:49;;;;;;;7.53;3.50;;;;;;;23.19;33.39;96902.16;4947330;28;20442;-75
2021/04/25 11:40:23;;;;;;;9.50;3.67;;;;;;;23.43;33.19;96896.88;4947041;28;20512;-75